Shelburne, Massachusetts
Current Conditions -  °F | °C
As of 8:52 AM on Wednesday 28 Jan 2015 (Local Time) from KAQW Reporting Station
Overcast Overcast  
Wind Chill: -6°   Ceiling: 7000
Heat Index: 10°   Visibility: 10mi
Dew Point:   Wind: 14mph
Humidity: 67%   Direction: 260°W
Pressure: 30.02"   Gusts: NA
Location:  42.6026°N, 72.7442°W
Report Text: KAQW 281352Z AUTO 26012KT 10SM OVC070 M12/M17 A3002 RMK AO2 SLP180 T11221172
Loading
Personal Weather Stations






























Interactive Weather Map New forecast layout! Learn more

10-Day Weather Forecast

Advertisements
Track Severe Weather on mobile